createdAt,value
2022-07-27T00:00:08.355Z,2
2022-07-27T00:05:07.827Z,2
2022-07-27T00:10:08.524Z,0
2022-07-27T00:15:08.242Z,0
2022-07-27T00:20:07.975Z,0
2022-07-27T00:25:07.643Z,0
2022-07-27T00:30:08.331Z,2
2022-07-27T00:35:08.009Z,2
2022-07-27T00:40:07.727Z,0
2022-07-27T00:45:08.427Z,0
2022-07-27T00:50:08.114Z,2
2022-07-27T00:55:07.825Z,2
2022-07-27T01:00:08.518Z,2
2022-07-27T01:05:08.205Z,2
2022-07-27T01:10:08.015Z,0
2022-07-27T01:15:08.003Z,0
2022-07-27T01:20:07.730Z,2
2022-07-27T01:25:08.445Z,2
2022-07-27T01:30:08.208Z,0
2022-07-27T01:35:07.916Z,0
2022-07-27T01:40:08.632Z,0
2022-07-27T01:45:08.873Z,0
2022-07-27T01:50:08.528Z,2
2022-07-27T01:55:08.236Z,2
2022-07-27T02:00:07.912Z,0
2022-07-27T02:05:08.725Z,0
2022-07-27T02:10:08.460Z,2
2022-07-27T02:15:08.223Z,2
2022-07-27T02:20:07.911Z,0
2022-07-27T02:25:08.635Z,0
2022-07-27T02:30:08.365Z,2
2022-07-27T02:35:18.768Z,2
2022-07-27T02:40:07.698Z,0
2022-07-27T02:45:08.390Z,0
2022-07-27T02:50:08.123Z,0
2022-07-27T02:55:07.823Z,0
2022-07-27T03:00:08.603Z,0
2022-07-27T03:05:08.299Z,0
2022-07-27T03:10:08.050Z,2
2022-07-27T03:15:07.715Z,2
2022-07-27T03:20:08.803Z,7
2022-07-27T03:25:08.341Z,7
2022-07-27T03:30:08.039Z,26
2022-07-27T03:35:07.725Z,38
2022-07-27T03:40:08.438Z,38
2022-07-27T03:45:08.127Z,68
2022-07-27T03:50:07.866Z,68
2022-07-27T03:55:08.588Z,162
2022-07-27T04:00:08.304Z,162
2022-07-27T04:05:02.108Z,358
2022-07-27T04:10:02.146Z,358
2022-07-27T04:15:02.589Z,566
2022-07-27T04:20:02.411Z,566
2022-07-27T04:25:02.257Z,832
2022-07-27T04:30:05.710Z,832
2022-07-27T04:35:01.896Z,1000
2022-07-27T04:40:02.736Z,1000
2022-07-27T04:45:02.576Z,1000
2022-07-27T04:50:02.488Z,1000
2022-07-27T04:55:02.505Z,1000
2022-07-27T05:00:01.959Z,2000
2022-07-27T05:05:01.751Z,2000
2022-07-27T05:10:02.537Z,3000
2022-07-27T05:15:02.402Z,3000
2022-07-27T05:20:02.192Z,3000
2022-07-27T05:25:01.985Z,4000
2022-07-27T05:30:01.754Z,4000
2022-07-27T05:35:02.586Z,6000
2022-07-27T05:40:02.449Z,6000
2022-07-27T05:45:02.307Z,6000
2022-07-27T05:50:02.180Z,6000
2022-07-27T05:55:02.240Z,6000
2022-07-27T06:00:02.191Z,7000
2022-07-27T06:05:02.180Z,7000
2022-07-27T06:10:02.215Z,7000
2022-07-27T06:15:02.263Z,8000
2022-07-27T06:20:02.102Z,8000
2022-07-27T06:25:01.991Z,8000
2022-07-27T06:30:01.828Z,8000
2022-07-27T06:35:02.690Z,9000
2022-07-27T06:40:02.635Z,10000
2022-07-27T06:45:02.463Z,10000
2022-07-27T06:50:02.300Z,13000
2022-07-27T06:55:02.075Z,13000
2022-07-27T07:00:02.013Z,13000
2022-07-27T07:05:01.885Z,13000
2022-07-27T07:10:02.732Z,13000
2022-07-27T07:15:02.554Z,13000
2022-07-27T07:20:02.360Z,13000
2022-07-27T07:25:03.015Z,13000
2022-07-27T07:30:02.735Z,11000
2022-07-27T07:35:02.569Z,11000
2022-07-27T07:40:18.811Z,16000
2022-07-27T07:45:02.331Z,16000
2022-07-27T07:50:02.059Z,27000
2022-07-27T07:55:01.897Z,27000
2022-07-27T08:00:02.786Z,30000
2022-07-27T08:05:02.577Z,29000
2022-07-27T08:10:02.495Z,29000
2022-07-27T08:15:02.361Z,27000
2022-07-27T08:20:02.172Z,27000
2022-07-27T08:25:01.959Z,30000
2022-07-27T08:30:02.526Z,30000
2022-07-27T08:35:02.578Z,33000
2022-07-27T08:45:02.303Z,40000
2022-07-27T08:50:02.282Z,52000
2022-07-27T08:55:02.203Z,52000
2022-07-27T09:00:02.323Z,48000
2022-07-27T09:05:02.413Z,48000
2022-07-27T09:10:02.290Z,36000
2022-07-27T09:15:02.210Z,36000
2022-07-27T09:20:02.069Z,51000
2022-07-27T09:25:01.881Z,51000
2022-07-27T09:30:02.814Z,94000
2022-07-27T09:35:02.646Z,94000
2022-07-27T09:40:02.510Z,97000
2022-07-27T09:45:02.321Z,17000
2022-07-27T09:50:02.657Z,34000
2022-07-27T09:55:02.581Z,34000
2022-07-27T10:00:02.605Z,99000
2022-07-27T10:05:02.650Z,99000
2022-07-27T10:10:02.492Z,18000
2022-07-27T10:15:02.421Z,99000
2022-07-27T10:20:02.238Z,99000
2022-07-27T10:25:02.194Z,99000
2022-07-27T10:30:01.972Z,17000
2022-07-27T10:35:01.754Z,18000
2022-07-27T10:40:02.613Z,12000
2022-07-27T10:45:02.404Z,12000
2022-07-27T10:50:11.388Z,99000
2022-07-27T10:55:02.215Z,99000
2022-07-27T11:00:12.432Z,99000
2022-07-27T11:05:02.025Z,35000
2022-07-27T11:10:04.697Z,35000
2022-07-27T11:15:02.197Z,50000
2022-07-27T11:20:02.114Z,50000
2022-07-27T11:25:01.942Z,52000
2022-07-27T11:30:03.125Z,52000
2022-07-27T11:35:02.021Z,24000
2022-07-27T11:40:13.872Z,24000
2022-07-27T11:45:01.989Z,90000
2022-07-27T11:50:01.896Z,90000
2022-07-27T11:55:01.786Z,92000
2022-07-27T12:00:02.721Z,92000
2022-07-27T12:05:03.157Z,91000
2022-07-27T12:10:02.329Z,91000
2022-07-27T12:15:16.327Z,93000
2022-07-27T12:20:02.136Z,17000
2022-07-27T12:25:01.965Z,19000
2022-07-27T12:30:01.791Z,19000
2022-07-27T12:35:02.660Z,89000
2022-07-27T12:40:02.458Z,85000
2022-07-27T12:45:02.430Z,84000
2022-07-27T12:50:02.232Z,84000
2022-07-27T12:55:02.036Z,37000
2022-07-27T13:00:01.776Z,26000
2022-07-27T13:05:02.546Z,26000
2022-07-27T13:10:04.052Z,28000
2022-07-27T13:15:02.293Z,28000
2022-07-27T13:20:02.144Z,28000
2022-07-27T13:25:01.993Z,28000
2022-07-27T13:30:02.783Z,96000
2022-07-27T13:35:02.630Z,33000
2022-07-27T13:40:02.456Z,33000
2022-07-27T13:45:09.376Z,41000
2022-07-27T13:50:02.582Z,41000
2022-07-27T13:55:02.553Z,25000
2022-07-27T14:00:02.840Z,75000
2022-07-27T14:05:02.717Z,71000
2022-07-27T14:10:02.894Z,71000
2022-07-27T14:15:01.898Z,70000
2022-07-27T14:20:02.718Z,70000
2022-07-27T14:25:02.643Z,17000
2022-07-27T14:30:02.370Z,17000
2022-07-27T14:35:02.172Z,11000
2022-07-27T14:40:02.041Z,12000
2022-07-27T14:45:01.914Z,12000
2022-07-27T14:50:02.785Z,16000
2022-07-27T14:55:02.643Z,16000
2022-07-27T15:00:02.366Z,17000
2022-07-27T15:05:02.227Z,17000
2022-07-27T15:10:02.224Z,20000
2022-07-27T15:15:02.422Z,20000
2022-07-27T15:20:02.315Z,52000
2022-07-27T15:25:02.126Z,49000
2022-07-27T15:30:01.972Z,49000
2022-07-27T15:35:01.843Z,45000
2022-07-27T15:40:02.636Z,45000
2022-07-27T15:45:02.525Z,41000
2022-07-27T15:50:02.558Z,41000
2022-07-27T15:55:02.462Z,40000
2022-07-27T16:00:02.376Z,40000
2022-07-27T16:05:02.852Z,33000
2022-07-27T16:10:02.637Z,33000
2022-07-27T16:15:02.499Z,32000
2022-07-27T16:20:02.341Z,31000
2022-07-27T16:25:02.144Z,31000
2022-07-27T16:30:02.034Z,30000
2022-07-27T16:35:01.966Z,30000
2022-07-27T16:40:01.926Z,31000
2022-07-27T16:45:02.962Z,31000
2022-07-27T16:50:01.890Z,30000
2022-07-27T16:55:02.824Z,30000
2022-07-27T17:00:02.882Z,29000
2022-07-27T17:05:03.146Z,29000
2022-07-27T17:10:02.277Z,27000
2022-07-27T17:15:02.102Z,27000
2022-07-27T17:20:01.883Z,22000
2022-07-27T17:25:02.662Z,22000
2022-07-27T17:30:02.462Z,22000
2022-07-27T17:35:02.332Z,14000
2022-07-27T17:40:02.118Z,7000
2022-07-27T17:45:02.242Z,7000
2022-07-27T17:50:02.074Z,7000
2022-07-27T17:55:02.025Z,5000
2022-07-27T18:00:01.846Z,5000
2022-07-27T18:05:02.683Z,3000
2022-07-27T18:10:02.554Z,3000
2022-07-27T18:15:02.334Z,2000
2022-07-27T18:20:02.171Z,2000
2022-07-27T18:25:02.024Z,2000
2022-07-27T18:30:01.840Z,2000
2022-07-27T18:35:02.788Z,1000
2022-07-27T18:40:02.617Z,1000
2022-07-27T18:45:02.591Z,1000
2022-07-27T18:50:02.399Z,1000
2022-07-27T18:55:02.193Z,1000
2022-07-27T19:00:02.141Z,1000
2022-07-27T19:05:01.993Z,1000
2022-07-27T19:10:02.081Z,826
2022-07-27T19:15:02.085Z,826
2022-07-27T19:20:01.989Z,569
2022-07-27T19:25:01.911Z,569
2022-07-27T19:30:02.731Z,301
2022-07-27T19:35:02.717Z,301
2022-07-27T19:40:20.175Z,76
2022-07-27T19:45:02.754Z,76
2022-07-27T19:50:02.698Z,46
2022-07-27T19:55:17.988Z,22
2022-07-27T20:00:01.814Z,14
2022-07-27T20:05:02.564Z,14
2022-07-27T20:10:02.460Z,3
2022-07-27T20:15:02.241Z,3
2022-07-27T20:20:02.095Z,0
2022-07-27T20:25:01.912Z,0
2022-07-27T20:30:02.777Z,0
2022-07-27T20:35:08.490Z,0
2022-07-27T20:40:08.218Z,0
2022-07-27T20:45:07.955Z,0
2022-07-27T20:50:07.648Z,2
2022-07-27T20:55:08.377Z,2
2022-07-27T21:00:18.098Z,0
2022-07-27T21:05:07.863Z,0
2022-07-27T21:10:08.633Z,0
2022-07-27T21:15:13.064Z,0
2022-07-27T21:20:08.215Z,0
2022-07-27T21:25:07.914Z,0
2022-07-27T21:30:08.625Z,0
2022-07-27T21:35:08.339Z,0
2022-07-27T21:40:08.091Z,2
2022-07-27T21:45:07.846Z,2
2022-07-27T21:50:08.552Z,2
2022-07-27T21:55:08.295Z,2
2022-07-27T22:00:08.038Z,2
2022-07-27T22:05:07.778Z,2
2022-07-27T22:10:08.817Z,0
2022-07-27T22:15:08.589Z,0
2022-07-27T22:20:08.313Z,0
2022-07-27T22:25:08.042Z,0
2022-07-27T22:30:07.778Z,2
2022-07-27T22:35:08.500Z,2
2022-07-27T22:40:08.245Z,2
2022-07-27T22:45:07.988Z,2
2022-07-27T22:50:07.686Z,0
2022-07-27T22:55:08.208Z,0
2022-07-27T23:00:59.663Z,0
2022-07-27T23:05:08.192Z,0
2022-07-27T23:10:07.921Z,2
2022-07-27T23:15:08.630Z,2
2022-07-27T23:20:08.360Z,2
2022-07-27T23:25:08.066Z,2
2022-07-27T23:30:08.075Z,0
2022-07-27T23:35:07.815Z,0
2022-07-27T23:40:09.688Z,0
2022-07-27T23:45:08.418Z,0
2022-07-27T23:50:08.124Z,2
2022-07-27T23:55:07.823Z,2
